Time;durP1;ratioP1;P1;durP2;ratioP2;P2;SDS_P1;SDS_P2;PMS_P1;PMS_P2;Temp;Humidity;BMP_temperature;BMP_pressure;BME280_temperature;BME280_humidity;BME280_pressure;Samples;Min_cycle;Max_cycle;Signal;HPM_P1;HPM_P2
2022/05/21 00:00:26;;;;;;;7.18;4.55;;;12.60;99.90;;;;;;4969101;28;20210;-66
2022/05/21 00:02:53;;;;;;;6.07;4.53;;;12.60;99.90;;;;;;4985962;28;20203;-65
2022/05/21 00:05:23;;;;;;;4.88;3.60;;;12.60;99.90;;;;;;4971538;28;20203;-65
2022/05/21 00:07:50;;;;;;;4.85;2.90;;;12.50;99.90;;;;;;4973798;28;20261;-65
2022/05/21 00:10:18;;;;;;;3.22;2.60;;;14.60;99.90;;;;;;4957866;28;20622;-66
2022/05/21 00:12:45;;;;;;;4.97;2.33;;;12.40;99.90;;;;;;4983786;28;20210;-65
2022/05/21 00:15:16;;;;;;;2.35;2.00;;;12.40;99.90;;;;;;4978255;28;20215;-65
2022/05/21 00:17:44;;;;;;;3.00;2.10;;;12.40;99.90;;;;;;4973950;28;20211;-65
2022/05/21 00:22:52;;;;;;;6.43;3.13;;;14.10;99.90;;;;;;4964606;28;20365;-65
2022/05/21 00:25:19;;;;;;;3.63;3.00;;;12.50;99.90;;;;;;4978468;28;20205;-65
2022/05/21 00:27:46;;;;;;;4.20;3.10;;;12.30;99.90;;;;;;4968335;28;20235;-65
2022/05/21 00:30:14;;;;;;;4.60;3.63;;;12.40;99.90;;;;;;4978893;28;20209;-65
2022/05/21 00:32:41;;;;;;;4.38;3.13;;;12.20;99.90;;;;;;4969363;28;20211;-65
2022/05/21 00:35:10;;;;;;;4.05;3.50;;;12.30;99.90;;;;;;4992187;28;20203;-66
2022/05/21 00:37:36;;;;;;;6.30;3.45;;;12.30;99.90;;;;;;4972757;28;20707;-65
2022/05/21 00:40:04;;;;;;;7.72;3.40;;;12.30;99.90;;;;;;4980656;28;20734;-65
2022/05/21 00:42:31;;;;;;;4.43;3.42;;;12.20;99.90;;;;;;4967561;28;20744;-65
2022/05/21 00:44:58;;;;;;;4.88;3.33;;;12.20;99.90;;;;;;4975050;28;20202;-65
2022/05/21 00:47:26;;;;;;;3.38;3.08;;;12.30;99.90;;;;;;4975625;28;20195;-65
2022/05/21 00:49:53;;;;;;;5.05;2.97;;;12.20;99.90;;;;;;4995677;28;20296;-65
2022/05/21 00:52:23;;;;;;;5.25;3.17;;;12.20;99.90;;;;;;4977347;28;20210;-65
2022/05/21 00:54:54;;;;;;;3.83;3.20;;;11.30;99.90;;;;;;4974131;28;20572;-65
2022/05/21 00:57:24;;;;;;;4.93;3.00;;;12.20;99.90;;;;;;4970271;28;20253;-65
2022/05/21 00:59:54;;;;;;;5.82;3.03;;;12.10;99.90;;;;;;4993852;28;20203;-65
2022/05/21 01:02:23;;;;;;;4.72;2.60;;;14.60;99.90;;;;;;4959788;28;20219;-65
2022/05/21 01:04:52;;;;;;;2.85;2.53;;;12.10;99.90;;;;;;4986507;28;20203;-65
2022/05/21 01:07:19;;;;;;;4.65;3.10;;;15.70;99.90;;;;;;4978586;28;20774;-65
2022/05/21 01:09:52;;;;;;;3.03;2.55;;;12.20;99.90;;;;;;4976401;28;20977;-65
2022/05/21 01:12:20;;;;;;;4.97;2.75;;;12.10;99.90;;;;;;4968940;28;22123;-65
2022/05/21 01:14:49;;;;;;;6.88;3.08;;;12.00;99.90;;;;;;4984403;28;21941;-65
2022/05/21 01:17:17;;;;;;;3.72;2.83;;;12.10;99.90;;;;;;4958832;28;20674;-65
2022/05/21 01:20:00;;;;;;;6.60;3.10;;;12.00;99.90;;;;;;4968694;28;20207;-65
2022/05/21 01:22:29;;;;;;;3.40;3.10;;;12.20;99.90;;;;;;4990352;28;20237;-65
2022/05/21 01:24:56;;;;;;;8.23;3.95;;;12.00;99.90;;;;;;4967484;28;20686;-65
2022/05/21 01:27:25;;;;;;;5.05;3.03;;;12.00;99.90;;;;;;4979102;28;20207;-65
2022/05/21 01:29:54;;;;;;;5.03;3.38;;;12.10;99.90;;;;;;4970314;28;20226;-65
2022/05/21 01:32:20;;;;;;;6.35;3.55;;;12.20;99.90;;;;;;4960457;28;20208;-65
2022/05/21 01:34:47;;;;;;;6.90;3.78;;;12.10;99.90;;;;;;4964142;28;20214;-65
2022/05/21 01:37:14;;;;;;;5.93;3.70;;;12.20;99.90;;;;;;4986774;28;20568;-65
2022/05/21 01:39:42;;;;;;;4.75;3.78;;;12.20;99.90;;;;;;4977348;28;20238;-65
2022/05/21 01:42:10;;;;;;;6.85;4.18;;;12.60;99.90;;;;;;4978272;28;20361;-65
2022/05/21 01:44:38;;;;;;;4.35;3.92;;;12.60;99.90;;;;;;4956312;28;20229;-65
2022/05/21 01:47:07;;;;;;;8.95;4.25;;;12.10;99.90;;;;;;4982566;28;20211;-64
2022/05/21 01:49:34;;;;;;;6.45;4.00;;;12.20;99.90;;;;;;4957208;28;20239;-65
2022/05/21 01:52:01;;;;;;;6.80;4.53;;;12.30;99.90;;;;;;4989690;28;20206;-65
2022/05/21 01:54:28;;;;;;;9.43;4.07;;;12.30;99.90;;;;;;4973882;28;20690;-65
2022/05/21 01:56:57;;;;;;;7.20;4.63;;;12.20;99.90;;;;;;4955962;28;20987;-65
2022/05/21 01:59:24;;;;;;;8.40;4.50;;;12.30;99.90;;;;;;4973734;28;20675;-65
2022/05/21 02:01:51;;;;;;;8.48;4.40;;;12.30;99.90;;;;;;4985749;28;20230;-65
2022/05/21 02:04:19;;;;;;;4.95;4.22;;;12.40;99.90;;;;;;4964699;28;20218;-65
2022/05/21 02:06:46;;;;;;;7.45;4.28;;;12.30;99.90;;;;;;4967916;28;20568;-65
2022/05/21 02:09:13;;;;;;;5.97;4.28;;;12.50;99.90;;;;;;4971075;28;20218;-66
2022/05/21 02:11:41;;;;;;;5.25;3.95;;;12.30;99.90;;;;;;4974654;28;20237;-65
2022/05/21 02:14:10;;;;;;;8.63;4.30;;;12.40;99.90;;;;;;4960823;28;20203;-65
2022/05/21 02:16:37;;;;;;;10.75;3.95;;;12.50;99.90;;;;;;4983256;28;20675;-65
2022/05/21 02:19:05;;;;;;;5.55;3.95;;;12.40;99.90;;;;;;4980395;28;20228;-65
2022/05/21 02:21:34;;;;;;;12.65;5.45;;;12.30;99.90;;;;;;4962599;28;20412;-65
2022/05/21 02:24:00;;;;;;;8.05;4.43;;;12.40;99.90;;;;;;4981504;28;20730;-65
2022/05/21 02:26:27;;;;;;;10.82;4.22;;;12.30;99.90;;;;;;4972983;28;20646;-65
2022/05/21 02:28:54;;;;;;;6.05;4.20;;;12.30;99.90;;;;;;4969438;28;20648;-66
2022/05/21 02:31:22;;;;;;;7.13;4.47;;;12.30;99.90;;;;;;4980094;28;20209;-65
2022/05/21 02:33:49;;;;;;;7.55;4.75;;;12.30;99.90;;;;;;4968198;28;20203;-65
2022/05/21 02:36:16;;;;;;;12.00;5.22;;;12.30;99.90;;;;;;4962158;28;20668;-65
2022/05/21 02:41:28;;;;;;;6.72;5.22;;;12.30;99.90;;;;;;4985717;28;20637;-65
2022/05/21 02:43:55;;;;;;;7.57;4.78;;;12.40;99.90;;;;;;4982722;28;20294;-65
2022/05/21 02:46:23;;;;;;;8.82;5.35;;;12.30;99.90;;;;;;4973008;28;20209;-64
2022/05/21 02:48:50;;;;;;;8.68;5.60;;;12.30;99.90;;;;;;4985113;28;20229;-66
2022/05/21 02:51:16;;;;;;;12.55;5.22;;;12.30;99.90;;;;;;4962220;28;20210;-65
2022/05/21 02:53:43;;;;;;;7.22;5.72;;;12.30;99.90;;;;;;4985732;28;20205;-65
2022/05/21 02:56:14;;;;;;;8.30;5.22;;;12.30;99.90;;;;;;4980748;28;20912;-65
2022/05/21 02:58:41;;;;;;;8.68;5.57;;;12.30;99.90;;;;;;4972092;28;21538;-64
2022/05/21 03:01:08;;;;;;;8.05;5.45;;;12.40;99.90;;;;;;4971278;28;21156;-65
2022/05/21 03:03:36;;;;;;;8.57;5.50;;;12.30;99.90;;;;;;4986962;28;21375;-65
2022/05/21 03:06:03;;;;;;;7.05;5.65;;;12.40;99.90;;;;;;4973787;28;20210;-65
2022/05/21 03:11:14;;;;;;;10.05;5.85;;;12.50;99.90;;;;;;4965538;28;20288;-65
2022/05/21 03:13:41;;;;;;;9.50;7.22;;;12.50;99.90;;;;;;4972897;28;20209;-65
2022/05/21 03:16:08;;;;;;;9.35;7.10;;;12.60;99.90;;;;;;4970241;28;20207;-65
2022/05/21 03:18:37;;;;;;;13.00;7.32;;;12.80;99.90;;;;;;4984281;28;20290;-65
2022/05/21 03:21:04;;;;;;;12.25;8.00;;;12.60;99.90;;;;;;4969463;28;20205;-65
2022/05/21 03:23:31;;;;;;;10.45;8.27;;;13.00;99.90;;;;;;4968337;28;20235;-65
2022/05/21 03:25:58;;;;;;;15.30;8.27;;;12.70;99.90;;;;;;4991077;28;20203;-65
2022/05/21 03:28:25;;;;;;;12.50;8.63;;;12.80;99.90;;;;;;4965704;28;20625;-65
2022/05/21 03:30:52;;;;;;;16.45;9.52;;;12.70;99.90;;;;;;4965554;28;20203;-65
2022/05/21 03:33:19;;;;;;;15.60;9.70;;;12.80;99.90;;;;;;4977985;28;20221;-65
2022/05/21 03:35:47;;;;;;;14.52;9.68;;;12.60;99.90;;;;;;4980864;28;20195;-65
2022/05/21 03:38:14;;;;;;;14.30;10.05;;;12.80;99.90;;;;;;4953461;28;20227;-65
2022/05/21 03:40:42;;;;;;;13.57;9.70;;;12.80;99.90;;;;;;4987251;28;20253;-65
2022/05/21 03:43:09;;;;;;;16.23;9.43;;;14.60;99.90;;;;;;4982198;28;20230;-65
2022/05/21 03:45:36;;;;;;;12.38;9.82;;;12.90;99.90;;;;;;4974397;28;20210;-65
2022/05/21 03:48:05;;;;;;;13.18;10.75;;;13.00;99.90;;;;;;4973998;28;20293;-65
2022/05/21 03:50:33;;;;;;;17.15;12.05;;;12.90;99.90;;;;;;4974500;28;20213;-65
2022/05/21 03:53:01;;;;;;;15.25;11.63;;;13.10;99.90;;;;;;4956275;28;20210;-65
2022/05/21 03:55:30;;;;;;;17.23;11.20;;;13.00;99.90;;;;;;4990525;28;20199;-65
2022/05/21 03:57:57;;;;;;;19.23;12.35;;;13.00;99.90;;;;;;4977274;28;20206;-65
2022/05/21 04:00:24;;;;;;;14.57;10.70;;;13.10;99.90;;;;;;4973976;28;20210;-66
2022/05/21 04:02:51;;;;;;;19.52;12.55;;;13.00;99.90;;;;;;4970429;28;20230;-65
2022/05/21 04:05:18;;;;;;;19.38;11.95;;;13.30;99.90;;;;;;4981267;28;20203;-65
2022/05/21 04:07:45;;;;;;;16.50;12.20;;;14.10;99.90;;;;;;4957203;28;20214;-65
2022/05/21 04:10:16;;;;;;;17.77;11.50;;;13.20;99.90;;;;;;4987170;28;20220;-65
2022/05/21 04:12:43;;;;;;;20.50;13.60;;;13.20;99.90;;;;;;4981528;28;20209;-65
2022/05/21 04:15:11;;;;;;;18.55;12.70;;;13.20;99.90;;;;;;4978744;28;20206;-65
2022/05/21 04:17:38;;;;;;;21.55;12.77;;;13.20;99.90;;;;;;4990026;28;20199;-65
2022/05/21 04:20:07;;;;;;;16.38;12.70;;;13.30;99.90;;;;;;4969422;28;20215;-65
2022/05/21 04:22:34;;;;;;;17.58;12.98;;;13.40;99.90;;;;;;4962589;28;20233;-65
2022/05/21 04:25:01;;;;;;;21.10;12.90;;;13.30;99.90;;;;;;4965156;28;20218;-65
2022/05/21 04:27:30;;;;;;;20.98;12.85;;;13.40;99.90;;;;;;4980861;28;20199;-65
2022/05/21 04:29:56;;;;;;;20.13;13.82;;;13.40;99.90;;;;;;4977625;28;20643;-65
2022/05/21 04:32:23;;;;;;;17.52;12.57;;;13.40;99.90;;;;;;4980554;28;20207;-66
2022/05/21 04:34:50;;;;;;;19.92;14.55;;;13.40;99.90;;;;;;4973582;28;21005;-65
2022/05/21 04:37:17;;;;;;;22.67;14.18;;;13.40;99.90;;;;;;4975002;28;20227;-65
2022/05/21 04:39:44;;;;;;;24.95;15.18;;;13.40;99.90;;;;;;4956594;28;20611;-65
2022/05/21 04:42:10;;;;;;;22.17;15.07;;;13.40;99.90;;;;;;4981768;28;20205;-66
2022/05/21 04:44:39;;;;;;;22.65;15.38;;;13.50;99.90;;;;;;4969739;28;20209;-65
2022/05/21 04:47:06;;;;;;;22.05;15.48;;;13.50;99.90;;;;;;4987371;28;20198;-65
2022/05/21 04:49:35;;;;;;;23.67;16.02;;;13.50;99.90;;;;;;4970967;28;20332;-66
2022/05/21 04:52:03;;;;;;;21.63;15.40;;;13.50;99.90;;;;;;4981571;28;20228;-65
2022/05/21 04:54:30;;;;;;;24.75;16.38;;;13.60;99.90;;;;;;4971847;28;20202;-65
2022/05/21 04:56:57;;;;;;;27.35;15.70;;;13.60;99.90;;;;;;4989908;28;20207;-65
2022/05/21 04:59:24;;;;;;;22.90;16.35;;;13.60;99.90;;;;;;4965080;28;20212;-65
2022/05/21 05:01:52;;;;;;;27.17;16.40;;;13.60;99.90;;;;;;4977336;28;21167;-65
2022/05/21 05:04:19;;;;;;;24.70;16.65;;;13.70;99.90;;;;;;4978369;28;20226;-65
2022/05/21 05:06:46;;;;;;;22.10;16.13;;;12.00;99.90;;;;;;4980347;28;20207;-65
2022/05/21 05:09:15;;;;;;;23.58;15.40;;;13.60;99.90;;;;;;4952467;28;20214;-66
2022/05/21 05:11:42;;;;;;;28.23;15.90;;;13.80;99.90;;;;;;4988561;28;20230;-65
2022/05/21 05:14:09;;;;;;;22.85;16.42;;;;;;;;;;4977714;28;20220;-65
2022/05/21 05:16:36;;;;;;;23.85;15.65;;;13.80;99.90;;;;;;4985185;28;20214;-65
2022/05/21 05:19:04;;;;;;;25.52;16.88;;;14.80;99.90;;;;;;4981484;28;20679;-65
2022/05/21 05:21:31;;;;;;;27.20;15.60;;;13.90;99.90;;;;;;4970378;28;20568;-65
2022/05/21 05:23:58;;;;;;;21.65;15.88;;;13.80;99.90;;;;;;4981061;28;20260;-65
2022/05/21 05:26:25;;;;;;;20.27;14.80;;;13.90;99.90;;;;;;4969123;28;20227;-65
2022/05/21 05:28:52;;;;;;;21.30;15.15;;;13.80;99.90;;;;;;4988552;28;20222;-65
2022/05/21 05:31:19;;;;;;;21.45;15.40;;;11.90;99.90;;;;;;4967850;28;20207;-65
2022/05/21 05:33:46;;;;;;;19.95;14.55;;;13.80;99.90;;;;;;4979304;28;21072;-65
2022/05/21 05:36:14;;;;;;;23.40;14.32;;;13.80;99.90;;;;;;4973725;28;20226;-65
2022/05/21 05:38:41;;;;;;;27.90;15.50;;;;;;;;;;4982789;28;20233;-65
2022/05/21 05:41:09;;;;;;;17.92;14.75;;;13.80;99.90;;;;;;4962827;28;20692;-66
2022/05/21 05:43:36;;;;;;;22.88;13.50;;;13.90;99.90;;;;;;4983598;28;20226;-65
2022/05/21 05:46:03;;;;;;;15.82;11.93;;;13.90;99.90;;;;;;4972799;28;20288;-65
2022/05/21 05:48:30;;;;;;;18.73;12.73;;;13.90;99.90;;;;;;4969266;28;20209;-65
2022/05/21 05:50:59;;;;;;;16.95;12.35;;;13.60;99.90;;;;;;4982790;28;20213;-65
2022/05/21 05:53:27;;;;;;;23.25;12.40;;;14.00;99.90;;;;;;4969989;28;20238;-65
2022/05/21 05:55:54;;;;;;;21.20;12.40;;;14.00;99.90;;;;;;4967288;28;20238;-64
2022/05/21 06:01:07;;;;;;;18.42;12.05;;;14.10;99.90;;;;;;4954444;28;21011;-66
2022/05/21 06:03:34;;;;;;;15.82;12.07;;;14.10;99.90;;;;;;4967150;28;20233;-65
2022/05/21 06:06:01;;;;;;;23.25;12.18;;;14.20;99.90;;;;;;4975923;28;20203;-65
2022/05/21 06:08:30;;;;;;;19.52;11.68;;;14.20;99.90;;;;;;4961399;28;22072;-65
2022/05/21 06:10:56;;;;;;;17.13;10.20;;;14.30;99.90;;;;;;4953364;28;20227;-65
2022/05/21 06:13:23;;;;;;;18.63;9.60;;;14.50;99.90;;;;;;4977984;28;20221;-66
2022/05/21 06:15:50;;;;;;;19.77;9.43;;;14.40;99.90;;;;;;4980050;28;20206;-66
2022/05/21 06:18:20;;;;;;;15.55;9.15;;;14.20;99.90;;;;;;4963494;28;20207;-66
2022/05/21 06:20:48;;;;;;;12.63;8.57;;;14.40;99.90;;;;;;4970023;28;20234;-66
2022/05/21 06:23:16;;;;;;;15.55;8.02;;;14.30;99.90;;;;;;4966503;28;20238;-65
2022/05/21 06:25:44;;;;;;;18.17;8.73;;;15.50;99.90;;;;;;4951224;28;20860;-66
2022/05/21 06:28:11;;;;;;;16.63;8.55;;;14.40;99.90;;;;;;4987715;28;20210;-65
2022/05/21 06:30:41;;;;;;;15.25;7.78;;;14.40;99.90;;;;;;4980468;28;20203;-65
2022/05/21 06:33:17;;;;;;;12.57;8.02;;;14.50;99.90;;;;;;4965133;28;20636;-65
2022/05/21 06:35:44;;;;;;;16.88;7.88;;;14.60;99.90;;;;;;4968775;28;20203;-65
2022/05/21 06:38:11;;;;;;;12.43;7.63;;;14.60;99.90;;;;;;4965438;28;20238;-65
2022/05/21 06:40:38;;;;;;;15.85;7.57;;;14.60;99.90;;;;;;4964559;28;20206;-65
2022/05/21 06:43:07;;;;;;;13.68;6.68;;;14.60;99.90;;;;;;4954007;28;20234;-66
2022/05/21 06:45:35;;;;;;;13.15;6.88;;;14.50;99.90;;;;;;4957438;28;20972;-65
2022/05/21 06:48:03;;;;;;;7.25;5.88;;;14.60;99.90;;;;;;4966917;28;20672;-65
2022/05/21 06:50:30;;;;;;;10.25;6.40;;;14.40;99.90;;;;;;4956160;28;20215;-65
2022/05/21 06:52:57;;;;;;;11.02;5.65;;;14.70;99.90;;;;;;4949057;28;20230;-66
2022/05/21 06:55:25;;;;;;;11.57;4.90;;;14.70;99.90;;;;;;4968557;28;20222;-66
2022/05/21 06:57:53;;;;;;;9.70;4.88;;;14.60;99.90;;;;;;4957887;28;20210;-66
2022/05/21 07:00:23;;;;;;;7.28;4.03;;;14.60;99.90;;;;;;4968292;28;20248;-65
2022/05/21 07:02:50;;;;;;;9.88;4.75;;;14.60;99.90;;;;;;4983662;28;20227;-65
2022/05/21 07:08:03;;;;;;;13.45;5.25;;;14.70;99.90;;;;;;4975136;28;20942;-65
2022/05/21 07:10:30;;;;;;;11.40;4.18;;;14.80;99.90;;;;;;4955952;28;20297;-65
2022/05/21 07:12:58;;;;;;;10.80;4.32;;;14.70;99.90;;;;;;4958561;28;20207;-65
2022/05/21 07:15:26;;;;;;;8.70;4.07;;;14.70;99.90;;;;;;4964918;28;20425;-65
2022/05/21 07:18:00;;;;;;;12.63;3.80;;;14.70;99.90;;;;;;4966060;28;20203;-65
2022/05/21 07:20:28;;;;;;;7.72;3.47;;;12.10;99.90;;;;;;4958929;28;20671;-65
2022/05/21 07:22:55;;;;;;;8.73;3.78;;;14.70;99.90;;;;;;4960261;28;20202;-65
2022/05/21 07:25:24;;;;;;;9.40;3.15;;;14.70;99.90;;;;;;4944132;28;20578;-65
2022/05/21 07:27:51;;;;;;;12.38;3.55;;;14.70;99.90;;;;;;4958420;28;20505;-65
2022/05/21 07:30:18;;;;;;;10.70;2.65;;;14.80;99.90;;;;;;4963937;28;20201;-65
2022/05/21 07:32:50;;;;;;;9.48;3.00;;;14.70;99.90;;;;;;4982708;28;20462;-65
2022/05/21 07:35:18;;;;;;;6.72;2.60;;;14.70;99.90;;;;;;4974022;28;20225;-65
2022/05/21 07:37:45;;;;;;;4.97;2.50;;;14.80;99.90;;;;;;4957405;28;20767;-65
2022/05/21 07:40:14;;;;;;;11.55;2.78;;;15.00;99.90;;;;;;4950418;28;22385;-65
2022/05/21 07:42:41;;;;;;;8.98;2.72;;;14.70;99.90;;;;;;4964062;28;20226;-65
2022/05/21 07:45:11;;;;;;;5.00;2.38;;;14.90;99.90;;;;;;4986247;28;20330;-63
2022/05/21 07:47:38;;;;;;;8.57;2.60;;;14.90;99.90;;;;;;4980300;28;20211;-66
2022/05/21 07:50:08;;;;;;;6.47;2.35;;;14.80;99.90;;;;;;4962246;28;20234;-65
2022/05/21 07:52:35;;;;;;;4.97;2.50;;;14.80;99.90;;;;;;4951007;28;20206;-66
2022/05/21 07:55:03;;;;;;;5.03;2.40;;;15.10;99.90;;;;;;4955163;28;20687;-65
2022/05/21 07:57:29;;;;;;;8.77;2.30;;;15.10;99.90;;;;;;4956573;28;20207;-65
2022/05/21 07:59:56;;;;;;;6.60;2.88;;;15.10;99.90;;;;;;4952932;28;20580;-65
2022/05/21 08:02:23;;;;;;;10.65;2.75;;;15.50;99.90;;;;;;4973984;28;20328;-65
2022/05/21 08:04:50;;;;;;;8.27;2.83;;;15.50;99.90;;;;;;4952373;28;20235;-65
2022/05/21 08:07:20;;;;;;;9.13;2.70;;;15.10;99.90;;;;;;4946123;28;20589;-65
2022/05/21 08:09:48;;;;;;;8.00;2.75;;;15.20;99.90;;;;;;4972117;28;20690;-65
2022/05/21 08:12:15;;;;;;;10.02;2.47;;;15.20;99.90;;;;;;4956564;28;20234;-64
2022/05/21 08:14:42;;;;;;;7.55;2.03;;;15.00;99.90;;;;;;4943447;28;20323;-64
2022/05/21 08:17:09;;;;;;;8.70;2.13;;;15.00;99.90;;;;;;4959262;28;20258;-64
2022/05/21 08:19:36;;;;;;;4.57;2.30;;;14.90;99.90;;;;;;4964587;28;20235;-65
2022/05/21 08:27:31;;;;;;;4.38;2.65;;;15.20;99.90;;;;;;4974754;28;20240;-63
2022/05/21 08:29:58;;;;;;;9.25;2.42;;;;;;;;;;4952046;28;20723;-64
2022/05/21 08:32:25;;;;;;;10.77;2.80;;;15.20;99.90;;;;;;4981971;28;25746;-63
2022/05/21 08:34:52;;;;;;;7.07;2.10;;;14.80;99.90;;;;;;4968688;28;20199;-65
2022/05/21 08:37:20;;;;;;;10.35;2.60;;;14.60;99.90;;;;;;4973424;28;20207;-63
2022/05/21 08:39:49;;;;;;;13.73;2.90;;;;;;;;;;4947710;28;20740;-63
2022/05/21 08:42:22;;;;;;;7.80;3.22;;;14.60;99.90;;;;;;4984738;28;20730;-65
2022/05/21 08:44:55;;;;;;;8.40;2.88;;;14.80;99.90;;;;;;4964645;28;20230;-64
2022/05/21 08:47:26;;;;;;;5.72;2.85;;;14.80;99.90;;;;;;4981120;28;20217;-64
2022/05/21 08:49:58;;;;;;;7.93;3.15;;;14.90;99.90;;;;;;4972613;28;20203;-63
2022/05/21 08:52:29;;;;;;;8.43;2.80;;;14.90;99.90;;;;;;4970763;28;20317;-64
2022/05/21 08:55:00;;;;;;;7.90;2.72;;;15.10;99.90;;;;;;4951037;28;20590;-64
2022/05/21 08:57:32;;;;;;;5.13;2.25;;;15.40;99.90;;;;;;4964908;28;20234;-64
2022/05/21 09:00:04;;;;;;;4.50;2.20;;;15.60;99.90;;;;;;4967226;28;20227;-64
2022/05/21 09:02:34;;;;;;;7.70;2.25;;;15.70;99.90;;;;;;4966107;28;20231;-64
2022/05/21 09:05:02;;;;;;;5.03;2.13;;;15.70;99.90;;;;;;4981693;28;20326;-65
2022/05/21 09:07:49;;;;;;;6.53;1.83;;;15.80;99.90;;;;;;4969548;28;20245;-65
2022/05/21 09:10:30;;;;;;;5.97;2.15;;;15.50;99.90;;;;;;4950087;28;20222;-66
2022/05/21 09:12:59;;;;;;;3.00;1.70;;;15.40;99.90;;;;;;4992326;28;20199;-66
2022/05/21 09:18:14;;;;;;;8.15;1.88;;;15.40;99.90;;;;;;4944263;28;20253;-65
2022/05/21 09:20:49;;;;;;;4.10;2.22;;;15.50;99.90;;;;;;4980170;28;20226;-64
2022/05/21 09:23:16;;;;;;;6.10;2.00;;;15.30;99.90;;;;;;4968648;28;20205;-65
2022/05/21 09:25:44;;;;;;;5.65;1.95;;;15.30;99.90;;;;;;4974547;28;20234;-65
2022/05/21 09:28:12;;;;;;;7.07;2.10;;;15.40;99.90;;;;;;4967526;28;20666;-64
2022/05/21 09:30:42;;;;;;;3.85;1.65;;;15.40;99.90;;;;;;4992035;28;20957;-65
2022/05/21 09:33:23;;;;;;;4.75;1.80;;;13.50;99.90;;;;;;4954767;28;20211;-65
2022/05/21 09:35:53;;;;;;;6.30;1.95;;;15.80;99.90;;;;;;4994328;28;20206;-65
2022/05/21 09:38:24;;;;;;;5.30;1.73;;;15.70;99.90;;;;;;4991987;28;21225;-64
2022/05/21 09:41:05;;;;;;;6.45;1.95;;;15.60;99.90;;;;;;4979505;28;20203;-64
2022/05/21 09:46:21;;;;;;;5.05;1.55;;;15.50;99.90;;;;;;4964672;28;20901;-64
2022/05/21 09:48:49;;;;;;;7.75;2.20;;;15.50;99.90;;;;;;4985298;28;20207;-62
2022/05/21 09:51:26;;;;;;;5.78;1.63;;;15.50;99.90;;;;;;4981411;28;20226;-63
2022/05/21 09:53:54;;;;;;;4.80;1.42;;;15.40;99.90;;;;;;4980385;28;20894;-64
2022/05/21 09:56:24;;;;;;;7.93;1.45;;;15.50;99.90;;;;;;4966543;28;20199;-64
2022/05/21 09:58:54;;;;;;;4.28;1.75;;;15.60;99.90;;;;;;4968885;28;20222;-63
2022/05/21 10:01:36;;;;;;;4.88;1.45;;;15.70;99.90;;;;;;4972932;28;20231;-62
2022/05/21 10:04:13;;;;;;;3.95;1.77;;;15.80;99.90;;;;;;4957734;28;20231;-64
2022/05/21 10:06:43;;;;;;;6.35;1.88;;;15.80;99.90;;;;;;4983180;28;20795;-64
2022/05/21 10:12:07;;;;;;;5.40;1.45;;;15.80;99.90;;;;;;4971159;28;20288;-66
2022/05/21 10:14:39;;;;;;;6.38;1.67;;;15.60;99.90;;;;;;4951321;28;23162;-65
2022/05/21 10:17:10;;;;;;;5.10;1.30;;;15.90;99.90;;;;;;4988256;28;20223;-63
2022/05/21 10:19:45;;;;;;;7.78;2.17;;;16.00;99.90;;;;;;4972390;28;20611;-63
2022/05/21 10:22:30;;;;;;;6.95;1.60;;;16.00;99.90;;;;;;4978643;28;20917;-63
2022/05/21 10:25:04;;;;;;;3.97;1.80;;;15.90;99.90;;;;;;4980019;28;20236;-64
2022/05/21 10:27:58;;;;;;;5.32;1.35;;;15.80;99.90;;;;;;4964671;28;20199;-63
2022/05/21 10:30:31;;;;;;;5.13;1.80;;;14.40;99.90;;;;;;4953342;28;20213;-63
2022/05/21 10:33:13;;;;;;;8.35;1.95;;;16.00;99.90;;;;;;4963737;28;20495;-64
2022/05/21 10:35:51;;;;;;;6.47;1.90;;;16.20;99.90;;;;;;4975003;28;20205;-63
2022/05/21 10:38:35;;;;;;;6.03;1.63;;;16.50;99.90;;;;;;4986482;28;20238;-64
2022/05/21 10:41:05;;;;;;;3.15;1.40;;;16.30;99.90;;;;;;4988570;28;20198;-64
2022/05/21 10:44:01;;;;;;;2.10;1.40;;;16.30;99.90;;;;;;4977859;28;20692;-63
2022/05/21 10:46:38;;;;;;;10.75;2.65;;;16.10;99.90;;;;;;4987758;28;20583;-63
2022/05/21 10:49:45;;;;;;;3.58;1.30;;;16.00;99.90;;;;;;4972595;28;20215;-63
2022/05/21 10:52:15;;;;;;;5.30;1.38;;;16.00;99.90;;;;;;4974628;28;20203;-63
2022/05/21 10:55:02;;;;;;;7.10;1.63;;;16.60;99.90;;;;;;4987457;28;20199;-63
2022/05/21 10:57:44;;;;;;;3.47;1.40;;;16.50;99.90;;;;;;4989124;28;20205;-63
2022/05/21 11:00:17;;;;;;;5.72;1.65;;;16.70;99.90;;;;;;4963599;28;20234;-63
2022/05/21 11:03:24;;;;;;;3.22;1.23;;;16.70;99.90;;;;;;4989524;28;20195;-64
2022/05/21 11:06:05;;;;;;;4.75;1.52;;;17.30;99.90;;;;;;4949594;28;21440;-64
2022/05/21 11:08:40;;;;;;;2.28;1.70;;;17.30;99.90;;;;;;4979577;28;20218;-64
2022/05/21 11:11:11;;;;;;;3.33;1.23;;;17.50;99.90;;;;;;4971577;28;20214;-64
2022/05/21 11:13:43;;;;;;;7.38;1.60;;;17.50;99.90;;;;;;4971555;28;20210;-64
2022/05/21 11:16:16;;;;;;;7.60;1.25;;;16.90;99.90;;;;;;4965385;28;20703;-64
2022/05/21 11:18:48;;;;;;;4.13;1.30;;;16.80;99.90;;;;;;4984628;28;20215;-65
2022/05/21 11:21:20;;;;;;;3.08;1.30;;;16.80;99.90;;;;;;4954033;28;20415;-64
2022/05/21 11:23:56;;;;;;;2.90;1.30;;;17.10;99.90;;;;;;4983356;28;20214;-64
2022/05/21 11:26:33;;;;;;;4.53;1.70;;;17.20;99.90;;;;;;4959180;28;20217;-64
2022/05/21 11:29:07;;;;;;;6.20;1.63;;;17.40;99.90;;;;;;4977847;28;20205;-64
2022/05/21 11:37:21;;;;;;;3.33;1.42;;;16.60;99.90;;;;;;4977094;28;20260;-63
2022/05/21 11:39:49;;;;;;;10.73;2.05;;;16.80;99.90;;;;;;4971299;28;20241;-62
2022/05/21 11:42:18;;;;;;;4.85;1.63;;;16.60;99.90;;;;;;4981274;28;20224;-63
2022/05/21 11:44:58;;;;;;;3.67;1.30;;;17.00;99.90;;;;;;4959403;28;20230;-63
2022/05/21 11:48:12;;;;;;;3.47;1.38;;;17.10;99.90;;;;;;4984795;28;20191;-63
2022/05/21 11:50:40;;;;;;;4.03;1.20;;;13.20;99.90;;;;;;4969932;28;20882;-63
2022/05/21 11:53:34;;;;;;;5.45;1.67;;;17.20;99.90;;;;;;4977842;28;20215;-62
2022/05/21 11:56:08;;;;;;;5.03;2.08;;;16.90;99.90;;;;;;4971637;28;20218;-63
2022/05/21 11:59:19;;;;;;;3.88;1.55;;;16.70;99.90;;;;;;4974303;28;20226;-63
2022/05/21 12:01:55;;;;;;;5.00;1.15;;;16.80;99.90;;;;;;4968476;28;20254;-62
2022/05/21 12:04:49;;;;;;;6.18;1.35;;;16.90;99.90;;;;;;4988934;28;20289;-63
2022/05/21 12:07:38;;;;;;;5.88;1.52;;;17.00;99.90;;;;;;4958959;28;21459;-63
2022/05/21 12:10:11;;;;;;;6.85;1.52;;;17.20;99.90;;;;;;4991667;28;20213;-63
2022/05/21 12:13:11;;;;;;;3.22;1.13;;;17.40;99.90;;;;;;4977794;28;20265;-62
2022/05/21 12:15:41;;;;;;;3.55;1.10;;;17.90;99.90;;;;;;4975321;28;20234;-64
2022/05/21 12:18:32;;;;;;;4.00;1.58;;;17.30;99.90;;;;;;4970445;28;20211;-61
2022/05/21 12:21:01;;;;;;;4.03;1.23;;;17.40;99.90;;;;;;4967393;28;20672;-61
2022/05/21 12:24:03;;;;;;;4.20;1.45;;;17.30;99.90;;;;;;4970750;28;20203;-61
2022/05/21 12:26:31;;;;;;;2.65;1.20;;;17.60;99.90;;;;;;4968606;28;20229;-61
2022/05/21 12:29:09;;;;;;;5.40;1.17;;;17.50;99.90;;;;;;4989722;28;20227;-61
2022/05/21 12:31:43;;;;;;;1.17;1.00;;;17.70;99.90;;;;;;4956651;28;20261;-61
2022/05/21 12:34:38;;;;;;;3.72;1.33;;;17.30;99.90;;;;;;4990193;28;20213;-61
2022/05/21 12:37:12;;;;;;;4.18;1.30;;;17.40;99.90;;;;;;4976772;28;20669;-61
2022/05/21 12:39:51;;;;;;;3.17;1.40;;;17.70;99.90;;;;;;4970078;28;20245;-62
2022/05/21 12:42:23;;;;;;;3.05;1.05;;;17.50;99.90;;;;;;4978829;28;20269;-61
2022/05/21 12:44:50;;;;;;;2.92;1.27;;;16.90;99.90;;;;;;4979068;28;20237;-61
2022/05/21 12:47:28;;;;;;;5.35;1.13;;;16.90;99.90;;;;;;4959310;28;20778;-61
2022/05/21 12:49:55;;;;;;;3.15;0.98;;;17.00;99.90;;;;;;4983742;28;20690;-61
2022/05/21 12:52:28;;;;;;;6.88;1.65;;;17.10;99.90;;;;;;4966157;28;20392;-61
2022/05/21 12:55:29;;;;;;;3.47;1.17;;;16.80;99.90;;;;;;4971488;28;20298;-61
2022/05/21 12:57:59;;;;;;;5.00;1.33;;;17.00;99.90;;;;;;4918649;28;20204;-61
2022/05/21 13:00:29;;;;;;;1.67;1.00;;;15.40;99.90;;;;;;4930558;28;20291;-61
2022/05/21 13:02:58;;;;;;;3.17;1.08;;;17.20;99.90;;;;;;4929919;28;20214;-61
2022/05/21 13:05:31;;;;;;;5.45;1.42;;;17.30;99.90;;;;;;4983375;28;20229;-61
2022/05/21 13:08:03;;;;;;;4.72;1.58;;;14.60;99.90;;;;;;4973665;28;20203;-61
2022/05/21 13:10:32;;;;;;;2.45;1.05;;;16.90;99.90;;;;;;4960987;28;20246;-61
2022/05/21 13:13:03;;;;;;;4.53;1.13;;;17.40;99.90;;;;;;4967342;28;20219;-61
2022/05/21 13:15:34;;;;;;;4.03;1.30;;;17.70;99.90;;;;;;4981749;28;20218;-62
2022/05/21 13:18:11;;;;;;;3.55;1.20;;;17.70;99.90;;;;;;4947791;28;20325;-61
2022/05/21 13:20:46;;;;;;;3.38;1.17;;;18.20;99.90;;;;;;4980816;28;20269;-61
2022/05/21 13:23:37;;;;;;;2.40;0.85;;;17.60;99.90;;;;;;4974982;28;20226;-63
2022/05/21 13:26:05;;;;;;;4.63;1.20;;;17.80;99.90;;;;;;4974924;28;20802;-62
2022/05/21 13:28:32;;;;;;;3.30;1.00;;;17.40;99.90;;;;;;4966098;28;20221;-62
2022/05/21 13:30:59;;;;;;;3.50;1.02;;;17.20;99.90;;;;;;4987842;28;20199;-62
2022/05/21 13:33:35;;;;;;;1.60;1.00;;;17.20;99.90;;;;;;4956193;28;20218;-62